Aérodrome :
LOGIN :

S'inscrire | Disclaimer

   EN    FR    IT 

 










Légende :    VFR   VFR Marginal   IFR   IFR Intensif   IFR Très Intensif
Visi : 
Plafond : 
>= 8 km
>= 3000ft
5 à 8 km
1000 à 3000 ft
1500m à 5 km
500 à 1000 ft
800 à 1500m
200 à 500 ft
< 800m
< 200 ft
Symboles :   Orages  Brouillard  Fortes neiges  Fortes précipitations  Vent > 20 kt
SIGMETs :   Divers  Orages  Givrage  Turbulence  Onde Orograph.  Cendres Volcan.






- Altitude de l'aérodrome : 63 ft
- Code IATA : BZM


EHWO - Woensdrecht Airbase

DERNIER METAR :
  • 301629Z AUTO 29005KT 230V010 9000 RA FEW010 BKN015CB BKN069 13/13 Q1013 WHT

METARs EXPIRÉS :
  • 301616Z AUTO 29006KT 230V360 7000 RA BKN015CB BKN056 OVC062 13/13 Q1013 WHT
  • 301611Z AUTO 26008KT 230V290 6000 +SHRA FEW008 BKN015CB BKN052 BKN057 13/13 Q1013 WHT
  • 301555Z AUTO 27008KT 230V320 8000 RA FEW004 SCT007 BKN008 BKN015CB 13/13 Q1013 GRN
  • 301542Z AUTO 25011KT 220V290 6000 RA FEW006 SCT007 BKN015CB 13/13 Q1013 GRN
  • 301537Z AUTO 26012KT 230V290 8000 RA BKN015CB BKN047 OVC051 13/12 Q1013 WHT
  • 301518Z AUTO 26014KT 230V290 6000 SHRA FEW006 BKN015CB BKN045 OVC054 14/13 Q1013 WHT
  • 301504Z AUTO 25016KT 9999 RA FEW008 FEW015CB SCT018 OVC040 14/13 Q1014 WHT
  • 301459Z AUTO 25014KT 9999 DZRA FEW012 FEW015CB SCT025 BKN030 15/13 Q1013 BLU
  • 301440Z AUTO 26012KT 230V310 9999 -SHRA FEW026 SCT031 OVC038 15/13 Q1013 BLU
  • 301425Z AUTO 26014KT 230V300 9999 SCT015 BKN019 BKN022 16/12 Q1013 WHT
  • 301400Z AUTO 27011KT 230V310 9999 SCT016 BKN020 BKN023 17/13 Q1012 WHT
  • 301356Z AUTO 27010KT 230V310 9999 FEW016 SCT020 OVC042 17/13 Q1012 WHT
  • 301355Z AUTO 27010KT 230V300 9999 FEW020 OVC041 17/13 Q1012 BLU

Prévision TAF périmée.



MET'MAP, la Météo Aéronautique d'un coup d'oeil ! - Copyright ORBIFLY Décembre 2007 - Disclaimer

ORBIFLY MET'MAP TEAM :

Programmation & Développement : Alexandra Zaïnal
Sur une idée originale de : Baudouin d'Aumeries
Soutien technique & logistique : Manuel Goepfert
Assistance : Marc-Olivier Méhu




SOURCES & CREDITS :

   NOAA